createdAt,value
2023-05-22T00:01:44.413Z,8.35
2023-05-22T00:04:13.319Z,8.20
2023-05-22T00:06:43.665Z,8.85
2023-05-22T00:09:10.379Z,8.13
2023-05-22T00:11:37.092Z,8.93
2023-05-22T00:14:03.801Z,8.35
2023-05-22T00:16:30.721Z,8.55
2023-05-22T00:18:57.865Z,8.18
2023-05-22T00:21:24.889Z,8.32
2023-05-22T00:23:51.610Z,8.57
2023-05-22T00:26:18.310Z,8.88
2023-05-22T00:28:44.955Z,9.18
2023-05-22T00:31:11.611Z,8.63
2023-05-22T00:33:38.350Z,8.73
2023-05-22T00:36:05.465Z,8.68
2023-05-22T00:38:34.248Z,8.20
2023-05-22T00:41:02.327Z,8.75
2023-05-22T00:43:29.120Z,8.90
2023-05-22T00:45:55.839Z,8.63
2023-05-22T00:48:23.604Z,8.95
2023-05-22T00:50:54.947Z,9.20
2023-05-22T00:53:23.854Z,8.85
2023-05-22T00:55:52.025Z,7.88
2023-05-22T00:58:18.814Z,8.40
2023-05-22T01:00:46.788Z,8.20
2023-05-22T01:03:14.410Z,8.50
2023-05-22T01:05:41.852Z,8.55
2023-05-22T01:08:09.869Z,8.10
2023-05-22T01:10:38.883Z,8.40
2023-05-22T01:13:05.820Z,8.20
2023-05-22T01:15:49.740Z,8.10
2023-05-22T01:18:42.681Z,8.07
2023-05-22T01:21:30.093Z,9.00
2023-05-22T01:24:30.232Z,7.97
2023-05-22T01:27:09.476Z,8.10
2023-05-22T01:30:04.064Z,8.50
2023-05-22T01:32:32.437Z,8.52
2023-05-22T01:35:02.075Z,8.18
2023-05-22T01:37:29.458Z,9.23
2023-05-22T01:39:56.517Z,8.52
2023-05-22T01:42:23.611Z,8.02
2023-05-22T01:44:50.296Z,8.23
2023-05-22T01:47:18.085Z,8.50
2023-05-22T01:49:45.926Z,7.97
2023-05-22T01:52:15.642Z,9.10
2023-05-22T01:55:21.155Z,8.43
2023-05-22T01:58:08.835Z,8.65
2023-05-22T02:00:35.883Z,8.57
2023-05-22T02:03:13.494Z,8.40
2023-05-22T02:05:41.241Z,8.65
2023-05-22T02:08:08.503Z,8.27
2023-05-22T02:10:36.229Z,8.52
2023-05-22T02:13:03.278Z,8.80
2023-05-22T02:15:30.894Z,8.77
2023-05-22T02:17:59.961Z,8.70
2023-05-22T02:20:26.693Z,8.63
2023-05-22T02:22:53.377Z,8.65
2023-05-22T02:25:20.051Z,8.63
2023-05-22T02:27:47.816Z,8.45
2023-05-22T02:30:15.047Z,8.90
2023-05-22T02:32:42.320Z,8.45
2023-05-22T02:35:09.805Z,9.57
2023-05-22T02:37:37.110Z,8.73
2023-05-22T02:40:07.356Z,8.38
2023-05-22T02:42:34.833Z,9.25
2023-05-22T02:45:01.958Z,8.40
2023-05-22T02:47:28.697Z,8.65
2023-05-22T02:49:57.826Z,9.25
2023-05-22T02:52:24.956Z,8.73
2023-05-22T02:54:51.723Z,8.63
2023-05-22T02:57:18.415Z,9.02
2023-05-22T02:59:45.178Z,9.30
2023-05-22T03:02:12.251Z,9.10
2023-05-22T03:04:38.915Z,8.90
2023-05-22T03:07:07.170Z,9.05
2023-05-22T03:09:33.896Z,9.80
2023-05-22T03:12:00.926Z,9.75
2023-05-22T03:14:29.088Z,9.80
2023-05-22T03:16:56.047Z,10.15
2023-05-22T03:19:22.892Z,9.82
2023-05-22T03:21:50.042Z,9.85
2023-05-22T03:24:16.978Z,9.23
2023-05-22T03:26:44.007Z,9.00
2023-05-22T03:29:10.782Z,8.90
2023-05-22T03:31:37.576Z,9.15
2023-05-22T03:34:05.741Z,8.63
2023-05-22T03:36:35.352Z,8.15
2023-05-22T03:39:03.709Z,9.18
2023-05-22T03:41:30.602Z,9.32
2023-05-22T03:43:58.136Z,8.85
2023-05-22T03:46:25.169Z,9.20
2023-05-22T03:48:52.017Z,9.48
2023-05-22T03:51:20.230Z,9.82
2023-05-22T03:53:47.361Z,9.35
2023-05-22T03:56:14.103Z,9.40
2023-05-22T03:58:40.797Z,8.82
2023-05-22T04:01:09.838Z,9.60
2023-05-22T04:03:37.646Z,8.77
2023-05-22T04:06:05.673Z,9.10
2023-05-22T04:08:32.471Z,9.02
2023-05-22T04:10:59.162Z,9.13
2023-05-22T04:13:27.083Z,9.15
2023-05-22T04:15:53.928Z,9.17
2023-05-22T04:18:20.704Z,9.45
2023-05-22T04:20:47.447Z,9.85
2023-05-22T04:23:14.217Z,9.77
2023-05-22T04:25:40.865Z,9.00
2023-05-22T04:28:09.114Z,8.97
2023-05-22T04:30:37.518Z,8.73
2023-05-22T04:33:05.480Z,9.00
2023-05-22T04:35:32.510Z,8.98
2023-05-22T04:38:02.496Z,9.35
2023-05-22T04:40:30.426Z,8.90
2023-05-22T04:42:59.853Z,9.15
2023-05-22T04:45:28.601Z,9.20
2023-05-22T04:47:55.968Z,9.40
2023-05-22T04:50:23.770Z,9.73
2023-05-22T04:52:50.613Z,9.57
2023-05-22T04:55:19.008Z,9.50
2023-05-22T04:57:45.970Z,9.93
2023-05-22T05:00:14.439Z,8.40
2023-05-22T05:02:41.287Z,9.32
2023-05-22T05:05:08.532Z,9.53
2023-05-22T05:07:39.278Z,9.13
2023-05-22T05:10:07.161Z,8.88
2023-05-22T05:12:34.135Z,8.63
2023-05-22T05:15:01.006Z,9.05
2023-05-22T05:17:27.757Z,9.88
2023-05-22T05:19:54.493Z,9.25
2023-05-22T05:22:21.161Z,8.70
2023-05-22T05:24:47.986Z,8.90
2023-05-22T05:27:15.190Z,8.67
2023-05-22T05:29:42.425Z,8.52
2023-05-22T05:32:10.075Z,8.82
2023-05-22T05:34:36.746Z,8.95
2023-05-22T05:37:04.801Z,9.85
2023-05-22T05:39:31.550Z,8.90
2023-05-22T05:41:58.331Z,9.70
2023-05-22T05:44:24.980Z,8.83
2023-05-22T05:46:52.500Z,8.57
2023-05-22T05:49:19.784Z,8.35
2023-05-22T05:51:46.435Z,8.05
2023-05-22T05:54:13.105Z,8.48
2023-05-22T05:56:39.904Z,8.20
2023-05-22T05:59:06.628Z,8.40
2023-05-22T06:01:35.203Z,8.70
2023-05-22T06:04:03.358Z,8.17
2023-05-22T06:06:36.036Z,8.35
2023-05-22T06:09:05.305Z,8.30
2023-05-22T06:11:37.145Z,8.60
2023-05-22T06:14:04.922Z,7.57
2023-05-22T06:16:31.699Z,8.00
2023-05-22T06:18:59.277Z,8.13
2023-05-22T06:21:26.078Z,8.70
2023-05-22T06:23:52.918Z,8.40
2023-05-22T06:26:19.835Z,8.73
2023-05-22T06:28:46.518Z,9.18
2023-05-22T06:31:14.323Z,8.10
2023-05-22T06:33:43.042Z,8.75
2023-05-22T06:36:11.391Z,8.85
2023-05-22T06:38:39.101Z,8.10
2023-05-22T06:41:06.325Z,9.13
2023-05-22T06:43:32.981Z,8.73
2023-05-22T06:45:59.665Z,9.00
2023-05-22T06:48:26.441Z,8.90
2023-05-22T06:50:53.106Z,8.20
2023-05-22T06:53:19.764Z,9.18
2023-05-22T06:55:46.464Z,8.55
2023-05-22T06:58:13.148Z,7.95
2023-05-22T07:00:40.033Z,8.25
2023-05-22T07:03:07.144Z,8.30
2023-05-22T07:05:33.854Z,8.90
2023-05-22T07:08:01.374Z,8.50
2023-05-22T07:10:28.138Z,8.52
2023-05-22T07:12:54.966Z,7.93
2023-05-22T07:15:21.714Z,8.25
2023-05-22T07:17:49.301Z,7.60
2023-05-22T07:20:16.803Z,8.27
2023-05-22T07:22:43.508Z,8.38
2023-05-22T07:25:10.607Z,8.07
2023-05-22T07:27:37.402Z,8.30
2023-05-22T07:30:04.554Z,7.90
2023-05-22T07:32:31.239Z,7.53
2023-05-22T07:34:57.916Z,7.32
2023-05-22T07:37:24.587Z,7.55
2023-05-22T07:39:51.258Z,7.93
2023-05-22T07:42:17.964Z,7.93
2023-05-22T07:44:44.704Z,7.75
2023-05-22T07:47:11.647Z,8.10
2023-05-22T07:49:38.400Z,8.07
2023-05-22T07:52:05.350Z,7.72
2023-05-22T07:54:32.035Z,7.53
2023-05-22T07:56:58.741Z,7.97
2023-05-22T07:59:25.861Z,7.70
2023-05-22T08:01:52.509Z,7.88
2023-05-22T08:04:19.319Z,8.10
2023-05-22T08:06:46.310Z,7.97
2023-05-22T08:09:13.081Z,7.38
2023-05-22T08:11:42.116Z,7.20
2023-05-22T08:14:09.219Z,7.45
2023-05-22T08:16:35.980Z,7.60
2023-05-22T08:19:03.238Z,7.68
2023-05-22T08:21:30.221Z,7.88
2023-05-22T08:23:56.899Z,6.88
2023-05-22T08:26:23.548Z,7.85
2023-05-22T08:28:50.217Z,7.28
2023-05-22T08:31:17.038Z,7.82
2023-05-22T08:33:43.838Z,7.70
2023-05-22T08:36:10.780Z,7.65
2023-05-22T08:38:37.514Z,7.47
2023-05-22T08:41:06.022Z,7.38
2023-05-22T08:43:32.713Z,7.10
2023-05-22T08:46:04.807Z,7.85
2023-05-22T08:48:32.947Z,7.97
2023-05-22T08:51:04.098Z,7.93
2023-05-22T08:53:38.730Z,7.40
2023-05-22T08:56:06.841Z,7.45
2023-05-22T08:58:37.974Z,7.85
2023-05-22T09:01:06.591Z,7.25
2023-05-22T09:03:34.917Z,7.18
2023-05-22T09:06:03.018Z,7.88
2023-05-22T09:08:29.705Z,7.35
2023-05-22T09:10:56.603Z,8.05
2023-05-22T09:13:28.023Z,7.80
2023-05-22T09:16:09.356Z,7.20
2023-05-22T09:18:40.559Z,7.50
2023-05-22T09:21:21.425Z,6.90
2023-05-22T09:23:54.610Z,7.57
2023-05-22T09:26:21.557Z,7.60
2023-05-22T09:28:48.222Z,6.38
2023-05-22T09:31:15.247Z,7.25
2023-05-22T09:33:44.064Z,7.68
2023-05-22T09:36:11.105Z,7.38
2023-05-22T09:38:38.216Z,7.20
2023-05-22T09:41:05.732Z,7.18
2023-05-22T09:43:33.867Z,7.55
2023-05-22T09:46:02.441Z,7.22
2023-05-22T09:48:33.867Z,7.43
2023-05-22T09:51:02.136Z,7.85
2023-05-22T09:53:32.947Z,7.53
2023-05-22T09:56:00.647Z,6.93
2023-05-22T09:58:30.793Z,7.80
2023-05-22T10:00:58.175Z,6.63
2023-05-22T10:03:26.788Z,7.13
2023-05-22T10:05:58.672Z,7.20
2023-05-22T10:08:29.253Z,7.40
2023-05-22T10:10:56.169Z,7.80
2023-05-22T10:13:25.268Z,7.07
2023-05-22T10:15:53.150Z,7.22
2023-05-22T10:18:20.210Z,7.40
2023-05-22T10:20:47.258Z,6.50
2023-05-22T10:23:17.824Z,7.10
2023-05-22T10:25:45.830Z,7.55
2023-05-22T10:28:16.604Z,6.75
2023-05-22T10:31:18.634Z,6.85
2023-05-22T10:33:51.307Z,7.43
2023-05-22T10:36:26.406Z,7.40
2023-05-22T10:38:57.500Z,7.45
2023-05-22T10:41:25.939Z,7.45
2023-05-22T10:43:55.979Z,7.65
2023-05-22T10:46:22.750Z,7.22
2023-05-22T10:48:52.823Z,7.00
2023-05-22T10:51:23.258Z,7.05
2023-05-22T10:53:57.845Z,7.38
2023-05-22T10:56:32.109Z,6.82
2023-05-22T10:59:05.264Z,6.93
2023-05-22T11:01:37.594Z,6.70
2023-05-22T11:04:05.069Z,6.57
2023-05-22T11:06:42.845Z,7.15
2023-05-22T11:09:20.546Z,6.60
2023-05-22T11:11:48.332Z,6.15
2023-05-22T11:14:20.210Z,7.20
2023-05-22T11:16:46.935Z,6.30
2023-05-22T11:19:23.413Z,6.40
2023-05-22T11:21:51.098Z,6.43
2023-05-22T11:24:18.312Z,6.65
2023-05-22T11:27:01.696Z,6.68
2023-05-22T11:29:29.258Z,6.68
2023-05-22T11:31:57.833Z,6.60
2023-05-22T11:37:06.217Z,6.40
2023-05-22T11:39:33.452Z,6.32
2023-05-22T11:42:00.154Z,6.50
2023-05-22T11:44:27.737Z,6.18
2023-05-22T11:46:54.597Z,6.40
2023-05-22T11:49:23.983Z,6.60
2023-05-22T11:51:51.692Z,6.15
2023-05-22T11:54:18.805Z,6.68
2023-05-22T11:56:45.765Z,6.68
2023-05-22T11:59:12.425Z,6.63
2023-05-22T12:01:39.042Z,5.93
2023-05-22T12:04:05.958Z,6.25
2023-05-22T12:06:33.472Z,6.20
2023-05-22T12:09:01.293Z,6.63
2023-05-22T12:11:28.057Z,6.32
2023-05-22T12:14:01.980Z,6.00
2023-05-22T12:16:33.585Z,5.80
2023-05-22T12:19:00.402Z,5.85
2023-05-22T12:21:27.188Z,5.60
2023-05-22T12:23:55.351Z,5.30
2023-05-22T12:26:22.136Z,5.47
2023-05-22T12:28:53.309Z,5.47
2023-05-22T12:31:21.698Z,6.00
2023-05-22T12:33:48.845Z,5.78
2023-05-22T12:36:15.531Z,5.70
2023-05-22T12:38:42.214Z,5.80
2023-05-22T12:41:08.858Z,5.72
2023-05-22T12:43:35.820Z,6.22
2023-05-22T12:46:02.976Z,5.60
2023-05-22T12:48:29.872Z,6.07
2023-05-22T12:50:56.580Z,5.55
2023-05-22T12:53:23.287Z,5.70
2023-05-22T12:55:49.962Z,5.57
2023-05-22T12:58:16.637Z,6.38
2023-05-22T13:00:43.367Z,6.22
2023-05-22T13:03:11.976Z,5.47
2023-05-22T13:05:38.863Z,5.90
2023-05-22T13:08:05.713Z,6.38
2023-05-22T13:10:32.416Z,5.70
2023-05-22T13:12:59.144Z,6.03
2023-05-22T13:15:29.234Z,6.18
2023-05-22T13:17:56.790Z,6.30
2023-05-22T13:20:23.679Z,6.05
2023-05-22T13:22:50.386Z,5.60
2023-05-22T13:25:19.050Z,5.60
2023-05-22T13:27:46.317Z,5.35
2023-05-22T13:30:13.265Z,5.78
2023-05-22T13:32:40.013Z,5.65
2023-05-22T13:35:07.010Z,5.90
2023-05-22T13:37:33.821Z,5.50
2023-05-22T13:40:00.592Z,5.68
2023-05-22T13:42:27.319Z,5.50
2023-05-22T13:44:54.232Z,5.25
2023-05-22T13:47:22.890Z,5.90
2023-05-22T13:49:49.773Z,5.78
2023-05-22T13:52:16.468Z,5.80
2023-05-22T13:54:43.333Z,5.88
2023-05-22T13:57:10.072Z,6.57
2023-05-22T13:59:36.774Z,6.00
2023-05-22T14:02:03.611Z,6.30
2023-05-22T14:04:30.705Z,5.60
2023-05-22T14:06:57.422Z,6.28
2023-05-22T14:09:24.307Z,5.85
2023-05-22T14:11:50.979Z,6.10
2023-05-22T14:14:23.619Z,6.07
2023-05-22T14:16:51.446Z,5.55
2023-05-22T14:19:19.554Z,5.82
2023-05-22T14:21:50.666Z,6.03
2023-05-22T14:24:17.782Z,5.50
2023-05-22T14:26:44.831Z,5.82
2023-05-22T14:29:11.877Z,6.00
2023-05-22T14:31:51.840Z,6.28
2023-05-22T14:34:18.768Z,6.05
2023-05-22T14:36:45.991Z,6.57
2023-05-22T14:39:12.661Z,6.10
2023-05-22T14:41:39.388Z,6.30
2023-05-22T14:44:06.169Z,5.95
2023-05-22T14:46:32.872Z,5.80
2023-05-22T14:48:59.623Z,5.60
2023-05-22T14:51:26.355Z,5.57
2023-05-22T14:53:53.254Z,6.47
2023-05-22T14:56:19.993Z,5.60
2023-05-22T14:58:46.689Z,5.68
2023-05-22T15:01:13.552Z,5.80
2023-05-22T15:03:40.303Z,6.07
2023-05-22T15:06:07.148Z,5.90
2023-05-22T15:08:33.858Z,5.60
2023-05-22T15:11:00.751Z,6.40
2023-05-22T15:13:27.525Z,6.07
2023-05-22T15:15:54.471Z,5.70
2023-05-22T15:18:21.197Z,5.70
2023-05-22T15:20:48.026Z,5.68
2023-05-22T15:23:14.733Z,5.65
2023-05-22T15:25:42.890Z,5.80
2023-05-22T15:28:09.616Z,5.78
2023-05-22T15:30:38.679Z,5.78
2023-05-22T15:33:05.660Z,5.72
2023-05-22T15:35:32.595Z,6.18
2023-05-22T15:37:59.516Z,6.05
2023-05-22T15:40:26.439Z,5.80
2023-05-22T15:42:56.180Z,6.10
2023-05-22T15:45:22.976Z,5.80
2023-05-22T15:47:50.136Z,5.45
2023-05-22T15:50:16.935Z,5.95
2023-05-22T15:52:43.601Z,5.43
2023-05-22T15:55:10.327Z,5.70
2023-05-22T15:57:38.053Z,6.40
2023-05-22T16:00:05.757Z,5.88
2023-05-22T16:02:32.595Z,5.80
2023-05-22T16:04:59.375Z,6.15
2023-05-22T16:07:26.382Z,5.80
2023-05-22T16:09:53.114Z,5.85
2023-05-22T16:12:19.872Z,5.90
2023-05-22T16:14:46.828Z,5.50
2023-05-22T16:17:13.741Z,5.63
2023-05-22T16:19:40.562Z,5.50
2023-05-22T16:22:07.359Z,6.07
2023-05-22T16:24:34.032Z,5.43
2023-05-22T16:27:00.889Z,5.65
2023-05-22T16:29:27.613Z,6.15
2023-05-22T16:31:56.322Z,6.07
2023-05-22T16:34:23.023Z,5.80
2023-05-22T16:36:49.704Z,5.47
2023-05-22T16:39:16.673Z,5.90
2023-05-22T16:41:43.482Z,6.00
2023-05-22T16:44:10.174Z,5.80
2023-05-22T16:46:36.900Z,5.07
2023-05-22T16:49:04.110Z,5.57
2023-05-22T16:51:58.922Z,5.68
2023-05-22T16:54:25.601Z,5.75
2023-05-22T16:56:52.249Z,5.88
2023-05-22T16:59:19.597Z,6.20
2023-05-22T17:01:46.758Z,5.75
2023-05-22T17:04:15.749Z,6.20
2023-05-22T17:06:45.878Z,5.72
2023-05-22T17:09:12.735Z,5.85
2023-05-22T17:11:39.559Z,6.10
2023-05-22T17:14:06.647Z,5.53
2023-05-22T17:16:33.548Z,5.75
2023-05-22T17:19:01.937Z,5.70
2023-05-22T17:21:30.706Z,5.50
2023-05-22T17:23:58.194Z,5.85
2023-05-22T17:26:25.088Z,5.63
2023-05-22T17:28:52.015Z,6.10
2023-05-22T17:31:20.338Z,6.38
2023-05-22T17:33:47.216Z,6.18
2023-05-22T17:36:14.166Z,5.97
2023-05-22T17:38:41.038Z,6.00
2023-05-22T17:41:08.165Z,10.15
2023-05-22T17:43:35.403Z,7.82
2023-05-22T17:46:03.414Z,6.15
2023-05-22T17:48:31.514Z,6.03
2023-05-22T17:50:59.509Z,7.80
2023-05-22T17:53:26.625Z,5.60
2023-05-22T17:55:53.543Z,5.78
2023-05-22T17:58:21.265Z,6.25
2023-05-22T18:00:49.278Z,5.85
2023-05-22T18:03:20.876Z,6.05
2023-05-22T18:05:51.606Z,6.18
2023-05-22T18:08:19.169Z,6.07
2023-05-22T18:10:46.032Z,6.07
2023-05-22T18:13:13.563Z,5.90
2023-05-22T18:15:40.800Z,6.00
2023-05-22T18:18:07.935Z,6.30
2023-05-22T18:20:35.285Z,6.45
2023-05-22T18:23:02.509Z,6.63
2023-05-22T18:25:29.367Z,6.65
2023-05-22T18:27:56.281Z,6.68
2023-05-22T18:30:25.829Z,7.03
2023-05-22T18:32:52.727Z,7.53
2023-05-22T18:35:19.688Z,6.85
2023-05-22T18:37:46.534Z,6.63
2023-05-22T18:40:14.794Z,6.80
2023-05-22T18:42:43.267Z,7.20
2023-05-22T18:45:11.682Z,6.93
2023-05-22T18:47:38.888Z,7.45
2023-05-22T18:50:06.497Z,7.13
2023-05-22T18:52:33.338Z,6.65
2023-05-22T18:55:00.056Z,7.22
2023-05-22T18:57:26.707Z,7.35
2023-05-22T18:59:53.416Z,7.75
2023-05-22T19:02:21.992Z,7.10
2023-05-22T19:04:50.077Z,6.60
2023-05-22T19:07:16.861Z,7.03
2023-05-22T19:09:43.795Z,6.70
2023-05-22T19:12:10.618Z,6.55
2023-05-22T19:14:37.458Z,7.20
2023-05-22T19:17:04.324Z,7.30
2023-05-22T19:19:31.175Z,6.80
2023-05-22T19:21:57.944Z,6.90
2023-05-22T19:24:27.835Z,7.20
2023-05-22T19:26:54.605Z,7.00
2023-05-22T19:29:22.438Z,7.05
2023-05-22T19:31:50.406Z,7.30
2023-05-22T19:34:17.053Z,7.47
2023-05-22T19:36:43.826Z,7.75
2023-05-22T19:39:10.508Z,7.20
2023-05-22T19:41:37.236Z,7.53
2023-05-22T19:44:03.956Z,7.38
2023-05-22T19:46:30.791Z,7.82
2023-05-22T19:48:57.544Z,7.70
2023-05-22T19:51:24.233Z,7.63
2023-05-22T19:53:50.903Z,7.45
2023-05-22T19:56:17.630Z,7.82
2023-05-22T19:58:44.290Z,8.50
2023-05-22T20:01:11.061Z,8.20
2023-05-22T20:03:37.913Z,7.78
2023-05-22T20:06:04.807Z,8.00
2023-05-22T20:08:31.485Z,7.47
2023-05-22T20:10:58.182Z,8.40
2023-05-22T20:13:24.886Z,7.78
2023-05-22T20:15:53.290Z,7.82
2023-05-22T20:18:22.036Z,8.60
2023-05-22T20:20:48.782Z,8.10
2023-05-22T20:23:15.634Z,8.02
2023-05-22T20:25:42.611Z,7.80
2023-05-22T20:28:09.463Z,8.98
2023-05-22T20:30:36.265Z,8.40
2023-05-22T20:33:03.070Z,8.10
2023-05-22T20:35:30.865Z,7.80
2023-05-22T20:38:02.941Z,7.97
2023-05-22T20:40:32.193Z,8.40
2023-05-22T20:43:02.342Z,8.38
2023-05-22T20:45:30.235Z,8.18
2023-05-22T20:47:57.187Z,8.55
2023-05-22T20:50:24.245Z,8.05
2023-05-22T20:52:51.112Z,8.68
2023-05-22T20:55:17.926Z,8.32
2023-05-22T20:57:44.737Z,7.80
2023-05-22T21:00:13.771Z,8.30
2023-05-22T21:02:40.621Z,8.35
2023-05-22T21:05:07.776Z,8.50
2023-05-22T21:07:37.162Z,8.63
2023-05-22T21:10:04.112Z,8.95
2023-05-22T21:12:31.015Z,8.10
2023-05-22T21:14:57.780Z,8.10
2023-05-22T21:17:25.747Z,8.50
2023-05-22T21:19:55.654Z,8.38
2023-05-22T21:22:22.499Z,8.63
2023-05-22T21:24:52.245Z,8.63
2023-05-22T21:27:19.084Z,8.65
2023-05-22T21:29:45.886Z,8.45
2023-05-22T21:32:12.593Z,8.75
2023-05-22T21:34:39.425Z,9.70
2023-05-22T21:37:06.143Z,8.40
2023-05-22T21:39:33.217Z,8.43
2023-05-22T21:42:00.002Z,8.80
2023-05-22T21:44:26.725Z,9.02
2023-05-22T21:46:53.514Z,9.50
2023-05-22T21:49:20.391Z,8.63
2023-05-22T21:51:47.091Z,9.18
2023-05-22T21:54:13.888Z,8.88
2023-05-22T21:56:40.710Z,8.32
2023-05-22T21:59:26.374Z,8.40
2023-05-22T22:02:08.825Z,8.43
2023-05-22T22:07:58.282Z,8.05
2023-05-22T22:10:27.098Z,8.15
2023-05-22T22:12:58.817Z,8.50
2023-05-22T22:15:30.618Z,8.48
2023-05-22T22:18:03.188Z,8.45
2023-05-22T22:20:44.384Z,8.68
2023-05-22T22:23:13.326Z,8.95
2023-05-22T22:25:42.717Z,8.43
2023-05-22T22:28:13.185Z,8.85
2023-05-22T22:30:43.877Z,8.57
2023-05-22T22:33:16.842Z,8.38
2023-05-22T22:35:52.666Z,8.60
2023-05-22T22:38:19.586Z,9.15
2023-05-22T22:40:46.572Z,8.93
2023-05-22T22:43:13.470Z,8.98
2023-05-22T22:45:40.525Z,9.50
2023-05-22T22:48:08.514Z,8.93
2023-05-22T22:50:35.250Z,8.63
2023-05-22T22:53:02.042Z,8.07
2023-05-22T22:55:28.957Z,7.75
2023-05-22T22:57:55.682Z,8.20
2023-05-22T23:00:22.500Z,8.48
2023-05-22T23:02:49.336Z,8.75
2023-05-22T23:05:19.831Z,7.88
2023-05-22T23:07:47.670Z,9.05
2023-05-22T23:10:15.037Z,8.18
2023-05-22T23:12:41.971Z,9.23
2023-05-22T23:15:09.291Z,8.68
2023-05-22T23:17:35.979Z,8.10
2023-05-22T23:20:02.728Z,8.48
2023-05-22T23:22:29.441Z,8.52
2023-05-22T23:24:56.286Z,8.88
2023-05-22T23:30:20.731Z,8.88
2023-05-22T23:32:47.487Z,9.18
2023-05-22T23:35:14.184Z,9.60
2023-05-22T23:37:40.807Z,9.63
2023-05-22T23:40:08.797Z,9.17
2023-05-22T23:42:36.188Z,9.43
2023-05-22T23:45:04.007Z,9.27
2023-05-22T23:47:30.693Z,9.20
2023-05-22T23:50:00.483Z,9.20
2023-05-22T23:52:27.500Z,9.53
2023-05-22T23:54:54.183Z,9.07
2023-05-22T23:57:20.916Z,9.18
2023-05-22T23:59:47.597Z,9.07
